Time;durP1;ratioP1;P1;durP2;ratioP2;P2;SDS_P1;SDS_P2;PMS_P1;PMS_P2;Temp;Humidity;BMP_temperature;BMP_pressure;BME280_temperature;BME280_humidity;BME280_pressure;Samples;Min_cycle;Max_cycle;Signal;HPM_P1;HPM_P2
2021/09/14 00:00:52;;;;;;;10.38;6.72;;;22.40;90.10;;;;;;6185343;23;20032;-87
2021/09/14 00:03:24;;;;;;;13.32;6.97;;;22.40;90.00;;;;;;6158861;23;20083;-86
2021/09/14 00:05:50;;;;;;;13.70;6.65;;;22.40;90.00;;;;;;6158578;23;20336;-87
2021/09/14 00:08:16;;;;;;;14.40;7.10;;;22.50;90.20;;;;;;6185544;23;20428;-88
2021/09/14 00:10:42;;;;;;;16.48;7.03;;;22.50;90.20;;;;;;6184315;23;20048;-85
2021/09/14 00:13:08;;;;;;;13.57;7.20;;;22.50;90.30;;;;;;6185007;23;20436;-87
2021/09/14 00:15:34;;;;;;;15.13;7.07;;;22.40;90.50;;;;;;6185420;23;20309;-87
2021/09/14 00:18:00;;;;;;;10.85;6.72;;;22.40;90.70;;;;;;6185501;23;20408;-86
2021/09/14 00:20:28;;;;;;;11.70;6.72;;;22.40;90.60;;;;;;6185027;23;20005;-87
2021/09/14 00:22:54;;;;;;;16.98;7.57;;;22.40;90.80;;;;;;6185307;23;20001;-87
2021/09/14 00:25:23;;;;;;;10.57;7.20;;;22.40;90.70;;;;;;6158907;23;20060;-88
2021/09/14 00:27:49;;;;;;;13.00;6.88;;;22.40;90.60;;;;;;6185189;23;20004;-87
2021/09/14 00:30:15;;;;;;;11.50;6.30;;;22.40;90.30;;;;;;6158662;23;20104;-86
2021/09/14 00:32:41;;;;;;;10.38;6.00;;;22.40;90.50;;;;;;6184991;23;20136;-87
2021/09/14 00:35:08;;;;;;;17.60;7.05;;;22.40;90.40;;;;;;6185101;23;20448;-87
2021/09/14 00:37:34;;;;;;;10.77;6.25;;;22.40;90.40;;;;;;6158851;23;20061;-87
2021/09/14 00:40:02;;;;;;;8.38;6.38;;;22.40;90.50;;;;;;6186142;23;20001;-87
2021/09/14 00:42:28;;;;;;;8.95;6.70;;;22.40;90.40;;;;;;6186766;23;20420;-87
2021/09/14 00:44:57;;;;;;;19.92;6.97;;;22.40;90.40;;;;;;6187245;23;20001;-86
2021/09/14 00:47:28;;;;;;;12.57;7.05;;;22.30;90.70;;;;;;6186873;23;20309;-88
2021/09/14 00:49:57;;;;;;;11.90;6.57;;;22.30;90.60;;;;;;6186945;23;20001;-87
2021/09/14 00:52:23;;;;;;;12.50;7.10;;;22.30;90.70;;;;;;6186808;23;20079;-87
2021/09/14 00:54:51;;;;;;;8.27;6.35;;;22.30;90.40;;;;;;6160566;23;20498;-86
2021/09/14 00:57:23;;;;;;;11.25;6.57;;;22.20;90.30;;;;;;6160275;23;20009;-87
2021/09/14 00:59:49;;;;;;;26.48;6.78;;;22.20;90.60;;;;;;6187048;23;20390;-86
2021/09/14 01:02:15;;;;;;;13.00;6.72;;;22.10;90.70;;;;;;6186887;23;20016;-87
2021/09/14 01:04:46;;;;;;;16.98;5.63;;;22.10;90.60;;;;;;6186854;23;20301;-88
2021/09/14 01:07:15;;;;;;;10.27;6.03;;;22.10;90.60;;;;;;6186805;23;20028;-87
2021/09/14 01:13:06;;;;;;;10.05;5.78;;;22.00;90.80;;;;;;6186872;23;20024;-86
2021/09/14 01:15:35;;;;;;;13.68;6.07;;;21.90;90.80;;;;;;6186850;23;20001;-87
2021/09/14 01:18:03;;;;;;;10.38;6.72;;;21.90;91.00;;;;;;6186988;23;20001;-87
2021/09/14 01:20:31;;;;;;;14.43;6.95;;;21.80;91.00;;;;;;6160071;23;20005;-86
2021/09/14 01:22:57;;;;;;;8.15;6.40;;;21.80;91.30;;;;;;6186903;23;20380;-88
2021/09/14 01:25:25;;;;;;;13.00;7.45;;;21.80;91.50;;;;;;6160053;23;20005;-87
2021/09/14 01:27:52;;;;;;;14.10;6.72;;;21.80;91.50;;;;;;6186481;23;20036;-87
2021/09/14 01:30:20;;;;;;;13.10;6.55;;;21.80;91.40;;;;;;6186476;23;20011;-87
2021/09/14 01:32:54;;;;;;;14.98;6.45;;;21.80;91.60;;;;;;6186601;23;20001;-86
2021/09/14 01:35:27;;;;;;;14.18;6.95;;;21.70;91.60;;;;;;6185966;23;20017;-87
2021/09/14 01:37:54;;;;;;;13.52;7.05;;;21.70;91.70;;;;;;6160302;23;20430;-88
2021/09/14 01:40:26;;;;;;;10.65;6.85;;;21.70;91.90;;;;;;6185629;23;20342;-86
2021/09/14 01:42:55;;;;;;;7.65;6.15;;;21.70;91.80;;;;;;6159159;23;20013;-87
2021/09/14 01:45:21;;;;;;;8.90;6.32;;;21.60;91.80;;;;;;6159059;23;20375;-87
2021/09/14 01:47:51;;;;;;;12.10;6.97;;;21.60;91.80;;;;;;6185521;23;19997;-87
2021/09/14 01:50:18;;;;;;;12.77;6.80;;;21.60;91.90;;;;;;6185290;23;20341;-86
2021/09/14 01:52:51;;;;;;;11.55;6.57;;;21.60;92.00;;;;;;6185249;23;20025;-87
2021/09/14 01:55:25;;;;;;;9.18;7.35;;;21.50;92.00;;;;;;6185283;23;20400;-86
2021/09/14 01:57:54;;;;;;;19.85;7.20;;;21.40;92.10;;;;;;6185556;23;20084;-86
2021/09/14 02:00:31;;;;;;;12.65;6.47;;;21.30;92.20;;;;;;6185442;23;20008;-87
2021/09/14 02:41:11;;;;;;;12.20;6.97;;;20.90;93.30;;;;;;6185014;23;20059;-86
2021/09/14 03:00:12;;;;;;;11.35;6.90;;;20.70;94.60;;;;;;6185152;23;20051;-87
2021/09/14 03:02:43;;;;;;;17.02;7.85;;;20.60;94.90;;;;;;6184631;23;20013;-87
2021/09/14 03:05:14;;;;;;;8.85;7.03;;;20.60;95.00;;;;;;6184939;23;20005;-86
2021/09/14 03:07:40;;;;;;;14.25;7.25;;;20.60;95.10;;;;;;6158212;23;20013;-87
2021/09/14 03:10:07;;;;;;;11.13;6.93;;;20.60;95.20;;;;;;6158504;23;20001;-87
2021/09/14 03:12:33;;;;;;;8.40;6.50;;;20.60;95.30;;;;;;6184898;23;20095;-87
2021/09/14 03:14:59;;;;;;;16.50;7.20;;;20.70;95.10;;;;;;6184874;23;20005;-87
2021/09/14 03:17:28;;;;;;;13.60;6.43;;;20.60;94.90;;;;;;6158431;23;20009;-87
2021/09/14 03:19:57;;;;;;;8.55;6.45;;;20.60;95.10;;;;;;6184789;23;20060;-86
2021/09/14 03:22:23;;;;;;;12.70;6.75;;;20.60;95.50;;;;;;6157813;23;20020;-86
2021/09/14 03:24:52;;;;;;;12.80;7.00;;;20.50;95.40;;;;;;6184871;23;19997;-87
2021/09/14 03:27:19;;;;;;;13.32;6.10;;;20.50;95.70;;;;;;6184748;23;20012;-87
2021/09/14 03:29:54;;;;;;;15.60;7.53;;;20.50;95.70;;;;;;6158460;23;20016;-86
2021/09/14 03:32:22;;;;;;;11.18;7.22;;;20.50;95.70;;;;;;6158159;23;20005;-86
2021/09/14 03:34:51;;;;;;;20.58;7.20;;;20.60;95.40;;;;;;6157930;23;20084;-87
2021/09/14 03:37:17;;;;;;;8.15;6.22;;;20.50;95.40;;;;;;6184834;23;20036;-87
2021/09/14 03:39:46;;;;;;;13.60;7.38;;;20.50;95.70;;;;;;6158208;23;20012;-87
2021/09/14 03:42:16;;;;;;;15.73;7.15;;;20.40;96.00;;;;;;6158486;23;20058;-87
2021/09/14 03:44:51;;;;;;;20.58;7.50;;;20.40;96.20;;;;;;6157648;23;20040;-86
2021/09/14 03:47:20;;;;;;;10.45;7.65;;;20.40;96.30;;;;;;6184588;23;20077;-86
2021/09/14 03:49:48;;;;;;;14.98;7.35;;;20.40;96.10;;;;;;6184666;23;20044;-86
2021/09/14 03:52:14;;;;;;;17.38;7.03;;;20.40;96.10;;;;;;6184607;23;20033;-86
2021/09/14 03:54:43;;;;;;;12.80;7.90;;;20.30;96.00;;;;;;6184552;23;20117;-85
2021/09/14 03:57:11;;;;;;;15.73;6.88;;;20.40;96.00;;;;;;6184609;23;20020;-87
2021/09/14 03:59:40;;;;;;;10.88;6.68;;;20.30;96.00;;;;;;6157911;23;20005;-87
2021/09/14 04:02:54;;;;;;;11.30;7.47;;;20.30;96.20;;;;;;6157971;23;20447;-86
2021/09/14 04:05:06;;;;;;;15.02;7.00;;;20.30;96.30;;;;;;6163162;23;20030;-85
2021/09/14 04:07:49;;;;;;;21.67;7.03;;;20.40;96.10;;;;;;6184835;23;20343;-86
2021/09/14 04:10:15;;;;;;;10.85;6.43;;;20.30;96.00;;;;;;6157752;23;20028;-87
2021/09/14 04:12:44;;;;;;;13.65;6.68;;;20.30;96.20;;;;;;6158378;23;20001;-86
2021/09/14 04:15:10;;;;;;;18.58;7.15;;;20.30;96.00;;;;;;6185854;23;20005;-86
2021/09/14 04:17:36;;;;;;;14.82;6.95;;;20.40;96.20;;;;;;6186148;23;20001;-86
2021/09/14 04:20:06;;;;;;;10.32;6.60;;;20.40;96.20;;;;;;6186376;23;20005;-87
2021/09/14 04:22:35;;;;;;;9.57;6.85;;;20.40;96.10;;;;;;6186313;23;20017;-87
2021/09/14 04:25:01;;;;;;;18.35;6.75;;;20.40;96.20;;;;;;6159801;23;20040;-86
2021/09/14 04:27:27;;;;;;;10.90;6.85;;;20.40;96.30;;;;;;6186484;23;20618;-86
2021/09/14 04:29:53;;;;;;;11.90;7.05;;;20.40;96.50;;;;;;6186284;23;19997;-87
2021/09/14 04:32:19;;;;;;;19.33;7.18;;;20.40;96.50;;;;;;6159643;23;20056;-87
2021/09/14 04:34:48;;;;;;;18.50;7.10;;;20.40;96.80;;;;;;6159553;23;20024;-86
2021/09/14 04:37:14;;;;;;;15.30;7.00;;;20.40;96.90;;;;;;6186166;23;20004;-86
2021/09/14 04:39:43;;;;;;;21.30;7.22;;;20.40;96.90;;;;;;6186262;23;20057;-86
2021/09/14 04:42:12;;;;;;;13.75;7.35;;;20.40;97.00;;;;;;6186142;23;20009;-86
2021/09/14 04:44:41;;;;;;;14.98;7.32;;;20.50;97.10;;;;;;6187247;23;20001;-85
2021/09/14 04:47:09;;;;;;;26.02;7.85;;;20.50;97.20;;;;;;6186853;23;20060;-86
2021/09/14 04:49:43;;;;;;;16.02;8.07;;;20.50;97.40;;;;;;6160694;23;20005;-87
2021/09/14 04:52:09;;;;;;;18.15;8.00;;;20.50;97.40;;;;;;6160775;23;20455;-86
2021/09/14 04:54:37;;;;;;;12.48;6.90;;;20.60;97.50;;;;;;6187032;23;19993;-87
2021/09/14 04:57:07;;;;;;;27.20;8.13;;;20.60;97.70;;;;;;6186957;23;19997;-87
2021/09/14 04:59:33;;;;;;;22.00;7.03;;;20.70;97.80;;;;;;6186904;23;20084;-86
2021/09/14 05:01:59;;;;;;;21.20;7.75;;;20.70;97.70;;;;;;6160764;23;20037;-86
2021/09/14 05:04:27;;;;;;;22.67;8.18;;;20.80;97.70;;;;;;6186843;23;20075;-86
2021/09/14 05:06:59;;;;;;;27.67;8.30;;;20.90;97.50;;;;;;6187132;23;20012;-86
2021/09/14 05:09:28;;;;;;;19.83;8.02;;;21.00;97.80;;;;;;6160423;23;20005;-87
2021/09/14 05:43:14;;;;;;;21.80;6.93;;;28.70;81.90;;;;;;5832006;24;20070;-84
2021/09/14 05:52:42;;;;;;;;;;;30.40;77.30;;;;;;6157286;23;20016;-85
2021/09/14 05:55:55;;;;;;;20.88;7.22;;;30.60;76.80;;;;;;6156552;23;19905;-84
2021/09/14 05:59:23;;;;;;;21.15;6.25;;;30.70;76.00;;;;;;6156401;23;20001;-86
2021/09/14 06:02:00;;;;;;;29.38;7.00;;;30.10;76.90;;;;;;6132760;23;20021;-84
2021/09/14 06:18:08;;;;;;;22.95;6.97;;;32.50;74.10;;;;;;5989924;23;20068;-86
2021/09/14 06:27:33;;;;;;;25.30;6.07;;;36.20;67.00;;;;;;6009985;23;20097;-86
2021/09/14 06:30:22;;;;;;;49.20;8.10;;;36.90;65.60;;;;;;6009354;23;20008;-87
2021/09/14 06:32:56;;;;;;;20.63;6.57;;;37.50;64.20;;;;;;6042699;23;20106;-86
2021/09/14 06:35:21;;;;;;;26.15;6.93;;;37.90;63.30;;;;;;6147386;23;20025;-86
2021/09/14 06:44:43;;;;;;;21.50;5.70;;;38.40;62.10;;;;;;6066804;23;20010;-85
2021/09/14 06:47:09;;;;;;;29.88;5.55;;;38.60;62.00;;;;;;6065976;23;20006;-86
2021/09/14 06:49:58;;;;;;;19.77;6.65;;;39.00;61.50;;;;;;6103807;23;20009;-84
2021/09/14 06:59:25;;;;;;;24.20;5.47;;;40.10;60.90;;;;;;6067666;23;20342;-84
2021/09/14 07:01:51;;;;;;;40.78;5.93;;;40.90;59.90;;;;;;6065284;23;20415;-82
2021/09/14 07:04:16;;;;;;;20.48;5.95;;;41.20;59.40;;;;;;6106052;23;20005;-82
2021/09/14 07:06:42;;;;;;;19.25;4.85;;;41.50;59.10;;;;;;6155516;23;20010;-83
2021/09/14 07:09:08;;;;;;;23.08;4.60;;;41.80;58.40;;;;;;6155689;23;20005;-82
2021/09/14 07:11:46;;;;;;;11.25;4.60;;;42.00;58.20;;;;;;6154766;23;20428;-82
2021/09/14 07:14:12;;;;;;;19.38;5.15;;;42.10;57.50;;;;;;6155206;23;19997;-89
2021/09/14 07:16:38;;;;;;;8.13;4.70;;;42.40;57.10;;;;;;6154805;23;20084;-84
2021/09/14 07:19:04;;;;;;;14.77;5.25;;;42.50;56.80;;;;;;6155121;23;20016;-85
2021/09/14 07:21:29;;;;;;;17.85;4.75;;;42.80;55.90;;;;;;6155613;23;20432;-85
2021/09/14 07:23:55;;;;;;;31.13;5.07;;;43.10;55.70;;;;;;6154794;23;20421;-82
2021/09/14 07:26:21;;;;;;;12.95;4.93;;;43.20;55.40;;;;;;6155025;23;20066;-83
2021/09/14 07:28:47;;;;;;;10.88;4.22;;;43.40;55.40;;;;;;6154826;23;20045;-87
2021/09/14 07:31:14;;;;;;;17.65;4.57;;;43.60;55.70;;;;;;6155808;23;20021;-85
2021/09/14 07:33:40;;;;;;;19.67;4.82;;;44.00;55.30;;;;;;6155626;23;20002;-86
2021/09/14 07:36:08;;;;;;;22.83;4.13;;;44.50;55.10;;;;;;6155394;23;20089;-82
2021/09/14 07:38:36;;;;;;;23.23;5.00;;;44.90;55.00;;;;;;6154689;23;20463;-83
2021/09/14 07:41:02;;;;;;;27.17;4.65;;;45.10;54.40;;;;;;6154168;23;20001;-85
2021/09/14 07:43:28;;;;;;;32.15;5.55;;;45.00;54.70;;;;;;6155155;23;20016;-84
2021/09/14 07:45:53;;;;;;;37.53;5.40;;;45.10;54.80;;;;;;6155715;23;20001;-84
2021/09/14 07:48:19;;;;;;;25.00;5.32;;;44.80;55.40;;;;;;6155134;23;20006;-85
2021/09/14 07:50:45;;;;;;;25.85;4.88;;;44.60;55.70;;;;;;6156949;23;20006;-85
2021/09/14 07:53:10;;;;;;;28.83;4.93;;;44.80;55.00;;;;;;6157586;23;20005;-81
2021/09/14 07:55:37;;;;;;;28.75;5.25;;;45.00;55.20;;;;;;6157299;23;20009;-86
2021/09/14 07:58:03;;;;;;;27.42;5.60;;;45.10;55.10;;;;;;6157760;23;20028;-85
2021/09/14 08:00:28;;;;;;;32.03;4.78;;;45.30;55.10;;;;;;6157140;23;20425;-82
2021/09/14 08:02:56;;;;;;;18.15;4.22;;;45.50;55.20;;;;;;6156889;23;20012;-87
2021/09/14 08:05:22;;;;;;;26.88;4.55;;;45.80;55.00;;;;;;6156677;23;20001;-82
2021/09/14 08:07:48;;;;;;;29.15;4.60;;;45.80;54.80;;;;;;6156707;23;20310;-84
2021/09/14 08:10:13;;;;;;;28.00;4.95;;;45.80;55.30;;;;;;6156890;23;19998;-84
2021/09/14 08:12:45;;;;;;;14.45;4.07;;;46.20;54.40;;;;;;6157025;23;20001;-81
2021/09/14 08:15:12;;;;;;;27.38;4.75;;;46.30;54.40;;;;;;6157909;23;20001;-84
2021/09/14 08:17:38;;;;;;;25.80;4.78;;;46.30;54.70;;;;;;6157631;23;20013;-84
2021/09/14 08:20:04;;;;;;;19.50;4.50;;;46.40;54.80;;;;;;6157587;23;20002;-87
2021/09/14 08:22:33;;;;;;;16.70;4.10;;;46.80;54.10;;;;;;6157713;23;20118;-86
2021/09/14 08:25:02;;;;;;;11.32;3.95;;;46.90;53.60;;;;;;6157465;23;20001;-83
2021/09/14 08:27:28;;;;;;;18.05;4.15;;;46.70;53.60;;;;;;6157599;23;20396;-84
2021/09/14 08:29:53;;;;;;;22.55;4.30;;;47.00;53.40;;;;;;6157392;23;19997;-83
2021/09/14 08:32:19;;;;;;;10.52;3.90;;;47.10;53.50;;;;;;6131389;23;20033;-84
2021/09/14 08:34:45;;;;;;;9.60;3.33;;;47.40;52.90;;;;;;6143576;23;20498;-86
2021/09/14 08:37:14;;;;;;;10.60;3.35;;;47.30;52.60;;;;;;6187430;23;20005;-82
2021/09/14 08:39:40;;;;;;;31.35;4.00;;;47.40;52.50;;;;;;6187149;23;20003;-81
2021/09/14 08:42:08;;;;;;;17.63;3.25;;;47.80;51.90;;;;;;6187176;23;20013;-85
2021/09/14 08:44:38;;;;;;;13.00;3.28;;;48.30;51.80;;;;;;6187276;23;19993;-82
2021/09/14 08:47:06;;;;;;;15.13;3.90;;;48.60;51.50;;;;;;6187226;23;20416;-83
2021/09/14 08:49:35;;;;;;;13.98;3.30;;;48.60;51.00;;;;;;6186886;23;20032;-82
2021/09/14 08:52:01;;;;;;;14.23;4.33;;;48.70;50.00;;;;;;6187034;23;20001;-83
2021/09/14 08:54:27;;;;;;;12.13;4.13;;;48.90;49.00;;;;;;6187133;23;20008;-85
2021/09/14 08:56:53;;;;;;;29.27;3.83;;;48.90;48.70;;;;;;6186919;23;20421;-84
2021/09/14 08:59:29;;;;;;;9.80;3.53;;;48.90;48.40;;;;;;6187128;23;20076;-83
2021/09/14 09:02:03;;;;;;;31.17;4.05;;;48.80;48.40;;;;;;6186706;23;20487;-82
2021/09/14 09:04:29;;;;;;;13.25;3.45;;;48.60;48.30;;;;;;6187176;23;20327;-83
2021/09/14 09:06:55;;;;;;;16.88;3.58;;;48.70;48.20;;;;;;6187016;23;20028;-83
2021/09/14 09:09:23;;;;;;;22.77;3.53;;;48.90;48.20;;;;;;6187013;23;19997;-87
2021/09/14 09:11:54;;;;;;;12.40;3.30;;;49.00;48.10;;;;;;6186776;23;20016;-81
2021/09/14 09:14:30;;;;;;;17.45;3.40;;;49.00;48.20;;;;;;6186776;23;20036;-82
2021/09/14 09:17:22;;;;;;;28.33;4.13;;;48.90;48.10;;;;;;6187225;23;20032;-82
2021/09/14 09:19:57;;;;;;;24.92;4.15;;;49.00;47.90;;;;;;6186260;23;20515;-82
2021/09/14 09:22:24;;;;;;;16.77;3.88;;;48.90;47.70;;;;;;6160189;23;20040;-88
2021/09/14 09:24:51;;;;;;;6.20;3.65;;;49.10;47.70;;;;;;6186671;23;20495;-85
2021/09/14 09:27:20;;;;;;;13.45;3.58;;;49.10;47.50;;;;;;6186886;23;20001;-88
2021/09/14 09:30:06;;;;;;;16.13;3.73;;;49.00;47.70;;;;;;6186934;23;20080;-83
2021/09/14 09:32:49;;;;;;;23.77;3.63;;;48.90;48.00;;;;;;6160553;23;20013;-81
2021/09/14 09:35:30;;;;;;;16.23;4.00;;;48.40;48.60;;;;;;6186267;23;20013;-82
2021/09/14 09:37:56;;;;;;;20.20;4.45;;;47.60;49.20;;;;;;6186504;23;20004;-80
2021/09/14 09:40:28;;;;;;;19.00;4.05;;;46.20;50.50;;;;;;6186182;23;20000;-80
2021/09/14 09:42:53;;;;;;;17.63;4.25;;;44.60;52.50;;;;;;6185686;23;20009;-82
2021/09/14 09:45:20;;;;;;;19.02;5.55;;;42.90;54.20;;;;;;6185733;23;20004;-82
2021/09/14 09:47:48;;;;;;;20.65;4.68;;;41.60;55.70;;;;;;6185419;23;20005;-83
2021/09/14 09:50:14;;;;;;;15.73;4.40;;;40.30;57.20;;;;;;6185390;23;20336;-82
2021/09/14 09:52:43;;;;;;;14.13;5.30;;;39.00;58.40;;;;;;6185527;23;20080;-83
2021/09/14 09:55:10;;;;;;;18.80;5.40;;;37.90;59.60;;;;;;6185770;23;19997;-81
2021/09/14 09:57:36;;;;;;;20.58;6.88;;;37.20;60.70;;;;;;6185843;23;20064;-82
2021/09/14 10:00:08;;;;;;;10.02;5.32;;;36.70;61.80;;;;;;6185300;23;19994;-87
2021/09/14 10:02:38;;;;;;;12.10;5.68;;;36.20;63.00;;;;;;6159071;23;20017;-83
2021/09/14 10:05:07;;;;;;;11.25;5.85;;;35.60;63.70;;;;;;6185575;23;20001;-83
2021/09/14 10:07:34;;;;;;;18.60;6.47;;;35.10;64.70;;;;;;6158991;23;20005;-82
2021/09/14 10:10:04;;;;;;;15.60;5.95;;;34.90;65.10;;;;;;6185486;23;20005;-85
2021/09/14 10:12:34;;;;;;;19.33;5.47;;;34.70;65.00;;;;;;6184911;23;20033;-82
2021/09/14 10:15:05;;;;;;;14.13;5.77;;;34.60;65.20;;;;;;6158750;23;20013;-84
2021/09/14 10:17:43;;;;;;;13.68;5.57;;;34.60;65.50;;;;;;6185236;23;20021;-83
2021/09/14 10:20:10;;;;;;;11.07;5.43;;;34.50;65.60;;;;;;6158295;23;20005;-83
2021/09/14 10:22:37;;;;;;;17.67;6.68;;;34.40;65.40;;;;;;6159604;23;20444;-84
2021/09/14 10:25:04;;;;;;;19.73;5.97;;;34.40;64.50;;;;;;6159500;23;20008;-81
2021/09/14 10:27:41;;;;;;;17.25;5.97;;;34.30;64.50;;;;;;6185731;23;20436;-81
2021/09/14 10:30:09;;;;;;;16.33;5.28;;;34.40;64.80;;;;;;6159499;23;20064;-82
2021/09/14 10:32:45;;;;;;;17.63;5.25;;;34.30;65.20;;;;;;6158714;23;20004;-83
2021/09/14 10:35:24;;;;;;;20.92;6.57;;;34.20;65.80;;;;;;6185570;23;20013;-83
2021/09/14 10:37:51;;;;;;;26.42;6.07;;;34.00;65.70;;;;;;6158634;23;20017;-83
2021/09/14 10:40:16;;;;;;;24.30;5.43;;;33.90;66.60;;;;;;6158373;23;20387;-86
2021/09/14 10:42:44;;;;;;;24.13;6.10;;;33.70;66.70;;;;;;6184898;23;20087;-81
2021/09/14 10:45:16;;;;;;;12.23;5.40;;;33.40;66.70;;;;;;6185041;23;19997;-86
2021/09/14 10:47:48;;;;;;;23.98;6.00;;;33.20;66.90;;;;;;6185108;23;20441;-80
2021/09/14 10:50:30;;;;;;;26.23;5.63;;;33.00;67.60;;;;;;6184842;23;20425;-85
2021/09/14 10:53:00;;;;;;;17.58;5.85;;;33.00;67.90;;;;;;6184919;23;20032;-80
2021/09/14 10:55:28;;;;;;;15.57;5.95;;;33.10;67.50;;;;;;6158615;23;20340;-84
2021/09/14 10:58:02;;;;;;;14.45;5.68;;;33.00;67.40;;;;;;6185037;23;20060;-86
2021/09/14 11:00:34;;;;;;;18.17;6.50;;;32.80;67.20;;;;;;6184849;23;20001;-81
2021/09/14 11:03:11;;;;;;;20.63;5.80;;;32.70;67.70;;;;;;6184704;23;20455;-83
2021/09/14 11:05:37;;;;;;;19.73;7.22;;;32.50;67.50;;;;;;6184761;23;20001;-86
2021/09/14 11:08:08;;;;;;;16.00;6.25;;;32.30;67.80;;;;;;6185480;23;20439;-80
2021/09/14 11:10:34;;;;;;;25.30;6.20;;;32.30;68.50;;;;;;6185469;23;20053;-85
2021/09/14 11:13:00;;;;;;;23.45;5.65;;;32.30;69.10;;;;;;6185674;23;20001;-82
2021/09/14 11:15:26;;;;;;;14.63;6.43;;;32.20;69.00;;;;;;6185008;23;20008;-85
2021/09/14 11:18:02;;;;;;;9.55;5.13;;;32.10;69.00;;;;;;6185478;23;20001;-81
2021/09/14 11:20:29;;;;;;;29.00;6.75;;;32.10;68.60;;;;;;6185552;23;20000;-81
2021/09/14 11:22:56;;;;;;;10.18;5.82;;;32.00;69.10;;;;;;6184454;23;20092;-82
2021/09/14 11:25:26;;;;;;;19.27;6.53;;;31.90;68.80;;;;;;6184486;23;19997;-83
2021/09/14 11:27:59;;;;;;;14.85;5.53;;;31.80;69.10;;;;;;6185288;23;20005;-78
2021/09/14 11:30:26;;;;;;;18.40;6.18;;;31.60;69.80;;;;;;6185399;23;20001;-92
2021/09/14 11:32:54;;;;;;;27.95;6.75;;;31.60;70.00;;;;;;6185619;23;20008;-80
2021/09/14 11:35:20;;;;;;;15.82;6.15;;;31.40;70.20;;;;;;6185068;23;20444;-91
2021/09/14 11:38:00;;;;;;;9.23;5.07;;;31.30;69.70;;;;;;6185627;23;20384;-86
2021/09/14 11:40:27;;;;;;;13.07;6.10;;;31.20;69.10;;;;;;6185030;23;20009;-88
2021/09/14 11:42:57;;;;;;;19.98;6.65;;;31.10;69.10;;;;;;6185380;23;20013;-90
2021/09/14 11:45:25;;;;;;;17.73;6.40;;;31.10;68.90;;;;;;6185821;23;20490;-78
2021/09/14 11:47:56;;;;;;;22.55;5.95;;;31.10;69.30;;;;;;6184993;23;20005;-86
2021/09/14 11:50:28;;;;;;;12.43;5.75;;;31.10;68.90;;;;;;6185066;23;20002;-89
2021/09/14 11:53:04;;;;;;;17.73;5.65;;;31.10;69.00;;;;;;6184982;23;20005;-90
2021/09/14 11:55:30;;;;;;;16.08;5.78;;;31.20;68.80;;;;;;6185129;23;20455;-90
2021/09/14 11:57:58;;;;;;;13.77;5.93;;;31.20;68.20;;;;;;6185224;23;20001;-83
2021/09/14 12:00:47;;;;;;;17.83;5.90;;;31.20;67.70;;;;;;6184848;23;20016;-80
2021/09/14 12:03:21;;;;;;;15.00;6.00;;;31.20;67.60;;;;;;6184899;23;20503;-84
2021/09/14 12:05:57;;;;;;;14.70;6.00;;;31.10;67.70;;;;;;6185467;23;19997;-90
2021/09/14 12:08:34;;;;;;;7.88;5.00;;;31.00;67.70;;;;;;6185854;23;20004;-89
2021/09/14 12:11:03;;;;;;;12.38;5.80;;;31.00;67.60;;;;;;6185304;23;20446;-79
2021/09/14 12:13:39;;;;;;;14.00;5.85;;;30.90;68.00;;;;;;6159157;23;20009;-81
2021/09/14 12:16:17;;;;;;;11.38;5.60;;;30.90;67.80;;;;;;6186235;23;20420;-89
2021/09/14 12:18:43;;;;;;;10.57;5.78;;;30.90;68.50;;;;;;6185234;23;20555;-86
2021/09/14 12:21:10;;;;;;;16.98;5.95;;;30.90;68.10;;;;;;6185494;23;20016;-82
2021/09/14 12:23:37;;;;;;;23.42;6.05;;;30.90;68.40;;;;;;6185128;23;19998;-89
2021/09/14 12:26:03;;;;;;;16.70;5.85;;;30.90;68.00;;;;;;6185501;23;20001;-86
2021/09/14 12:28:29;;;;;;;12.77;6.15;;;31.00;68.10;;;;;;6184872;23;20001;-82
2021/09/14 12:30:55;;;;;;;8.00;5.85;;;31.00;67.70;;;;;;6185269;23;20055;-85
2021/09/14 12:33:21;;;;;;;13.27;5.97;;;30.90;67.60;;;;;;6185692;23;20428;-82
2021/09/14 12:35:47;;;;;;;15.80;5.90;;;30.80;67.70;;;;;;6185371;23;20910;-90
2021/09/14 12:38:13;;;;;;;8.52;6.00;;;30.70;67.90;;;;;;6186830;23;19997;-88
2021/09/14 12:40:39;;;;;;;11.23;6.45;;;30.60;67.80;;;;;;6160945;23;20013;-87
2021/09/14 12:43:05;;;;;;;10.57;5.38;;;30.60;68.10;;;;;;6186550;23;20052;-88
2021/09/14 12:45:31;;;;;;;19.33;5.93;;;30.60;67.70;;;;;;6187386;23;20005;-87
2021/09/14 12:47:57;;;;;;;18.60;5.85;;;30.50;67.70;;;;;;6160964;23;20076;-89
2021/09/14 12:50:22;;;;;;;12.32;5.53;;;30.40;67.60;;;;;;6187415;23;20031;-81
2021/09/14 12:52:48;;;;;;;22.63;6.15;;;30.30;68.00;;;;;;6187097;23;20379;-81
2021/09/14 12:55:15;;;;;;;20.45;5.97;;;30.20;68.40;;;;;;6186445;23;20108;-80
2021/09/14 12:57:41;;;;;;;12.90;6.00;;;30.10;68.70;;;;;;6186845;23;20032;-87
2021/09/14 13:00:07;;;;;;;19.52;6.22;;;30.00;69.40;;;;;;6186717;23;20044;-79
2021/09/14 13:02:33;;;;;;;18.95;5.82;;;29.90;69.90;;;;;;6187144;23;20080;-86
2021/09/14 13:04:59;;;;;;;14.57;6.57;;;29.90;70.50;;;;;;6187208;23;19997;-79
2021/09/14 13:07:27;;;;;;;19.83;5.78;;;29.90;70.50;;;;;;6187181;23;20051;-91
2021/09/14 13:09:53;;;;;;;22.77;7.18;;;29.90;70.70;;;;;;6186494;23;20001;-84
2021/09/14 13:12:22;;;;;;;16.63;6.10;;;29.90;70.20;;;;;;6186910;23;20339;-85
2021/09/14 13:17:33;;;;;;;16.13;5.78;;;29.90;69.90;;;;;;6187090;23;20347;-80
2021/09/14 13:19:59;;;;;;;16.77;6.05;;;29.90;70.30;;;;;;6186599;23;20001;-80
2021/09/14 13:22:25;;;;;;;12.27;6.35;;;29.80;70.20;;;;;;6186317;23;20063;-81
2021/09/14 13:24:50;;;;;;;16.75;6.03;;;29.70;70.20;;;;;;6186502;23;20048;-81
2021/09/14 13:27:16;;;;;;;21.65;6.38;;;29.70;70.20;;;;;;6186645;23;20012;-80
2021/09/14 13:29:42;;;;;;;17.85;6.65;;;29.80;70.40;;;;;;6186838;23;20008;-80
2021/09/14 13:32:07;;;;;;;21.38;6.93;;;29.80;70.60;;;;;;6186494;23;20008;-81
2021/09/14 13:34:33;;;;;;;17.23;6.53;;;29.80;70.90;;;;;;6159798;23;20017;-81
2021/09/14 13:37:01;;;;;;;9.40;6.13;;;29.80;71.00;;;;;;6186500;23;19997;-82
2021/09/14 13:39:30;;;;;;;21.17;6.55;;;29.70;70.80;;;;;;6186527;23;20332;-81
2021/09/14 13:41:57;;;;;;;29.80;6.57;;;29.70;71.10;;;;;;6186228;23;20009;-82
2021/09/14 13:46:56;;;;;;;;;;;29.60;70.70;;;;;;6196934;23;20391;-80
2021/09/14 13:49:21;;;;;;;19.25;6.53;;;29.60;70.70;;;;;;6186235;23;19900;-81
2021/09/14 13:51:47;;;;;;;11.95;5.95;;;29.60;70.80;;;;;;6186254;23;20071;-82
2021/09/14 13:54:13;;;;;;;26.27;6.75;;;29.60;70.00;;;;;;6186425;23;20306;-83
2021/09/14 13:56:39;;;;;;;10.02;6.07;;;29.70;70.30;;;;;;6186489;23;20324;-81
2021/09/14 13:59:05;;;;;;;14.65;6.05;;;29.60;70.00;;;;;;6186237;23;20005;-82
2021/09/14 14:01:30;;;;;;;28.63;7.35;;;29.70;70.50;;;;;;6185961;23;20013;-83
2021/09/14 14:03:56;;;;;;;17.58;5.80;;;29.60;70.20;;;;;;6186251;23;20071;-81
2021/09/14 14:06:27;;;;;;;32.30;7.18;;;29.60;71.30;;;;;;6186459;23;20004;-85
2021/09/14 14:08:53;;;;;;;38.35;6.80;;;29.50;70.80;;;;;;6186427;23;20316;-81
2021/09/14 14:11:22;;;;;;;31.35;7.22;;;29.50;70.80;;;;;;6186080;23;20001;-84
2021/09/14 14:13:48;;;;;;;27.60;6.03;;;29.50;70.80;;;;;;6186182;23;20001;-82
2021/09/14 14:16:14;;;;;;;15.75;6.68;;;29.40;71.50;;;;;;6186057;23;20334;-83
2021/09/14 14:18:51;;;;;;;18.05;6.60;;;29.40;70.70;;;;;;6186320;23;20074;-81
2021/09/14 14:21:17;;;;;;;19.08;6.93;;;29.30;71.10;;;;;;6186310;23;20005;-83
2021/09/14 14:23:46;;;;;;;21.73;6.55;;;29.30;70.80;;;;;;6185790;23;20055;-84
2021/09/14 14:26:12;;;;;;;16.63;5.70;;;29.40;70.50;;;;;;6186109;23;20080;-83
2021/09/14 14:28:40;;;;;;;18.25;5.55;;;29.40;69.70;;;;;;6186006;23;20499;-87
2021/09/14 14:31:06;;;;;;;15.40;5.60;;;29.40;69.10;;;;;;6185920;23;19997;-86
2021/09/14 14:33:37;;;;;;;15.63;5.72;;;29.40;69.80;;;;;;6185892;23;20005;-82
2021/09/14 14:43:25;;;;;;;14.23;5.37;;;29.50;69.50;;;;;;6118769;23;20027;-83
2021/09/14 14:45:57;;;;;;;16.25;5.95;;;29.40;70.20;;;;;;6185783;23;20232;-83
2021/09/14 14:48:26;;;;;;;24.85;6.28;;;29.30;70.80;;;;;;6185820;23;20001;-82
2021/09/14 14:51:30;;;;;;;43.38;7.43;;;29.30;71.40;;;;;;6185515;23;20001;-83
2021/09/14 14:54:11;;;;;;;35.85;7.32;;;29.40;72.40;;;;;;6185602;23;20024;-80
2021/09/14 14:56:38;;;;;;;26.35;7.03;;;29.40;72.70;;;;;;6185647;23;20487;-81
2021/09/14 14:59:04;;;;;;;29.00;6.47;;;29.30;72.50;;;;;;6185361;23;20005;-84
2021/09/14 15:01:30;;;;;;;24.10;6.20;;;29.30;72.50;;;;;;6185403;23;20335;-83
2021/09/14 15:04:05;;;;;;;18.58;6.97;;;29.20;72.50;;;;;;6185733;23;20076;-81
2021/09/14 15:06:31;;;;;;;22.02;6.13;;;29.20;72.40;;;;;;6185382;23;19993;-83
2021/09/14 15:09:20;;;;;;;20.23;5.90;;;29.20;72.20;;;;;;6186018;23;20060;-85
2021/09/14 15:11:49;;;;;;;17.35;5.38;;;29.20;72.20;;;;;;6185481;23;20001;-83